KLDM/LDM METAR and TAF weather

Enter ICAO airport designator
Station Type Date Time Source
KLDM METAR 2021/08/02 03:35 UTC NOAA

KLDM 020335Z AUTO 01003KT 10SM CLR 16/13 A3012 RMK AO2 T01590132


Station Type Date Time Source
KLDM Decoded METAR 2021/08/02 03:35 UTC NOAA

Ludington, Mason County Airport, MI, United States (KLDM) 43-58N 86-24W
Aug 01, 2021 - 11:35 PM EDT / 2021.08.02 0335 UTC
Wind: from the N (010 degrees) at 3 MPH (3 KT):0
Visibility: 10 mile(s):0
Sky conditions: clear
Temperature: 60.6 F (15.9 C)
Dew Point: 55.8 F (13.2 C)
Relative Humidity: 83%
Pressure (altimeter): 30.12 in. Hg (1019 hPa)
ob: KLDM 020335Z AUTO 01003KT 10SM CLR 16/13 A3012 RMK AO2 T01590132
cycle: 3

Station Type Date Time Source
KLDM TAF UTC NOAA

Error!

Example: see airport list